sensor_id;sensor_type;location;lat;lon;timestamp;temperature;humidity
74416;SHT31;62850;42.428;25.618;2023-04-03T00:02:16;12.60;53.65
74416;SHT31;62850;42.428;25.618;2023-04-03T00:04:41;12.57;53.40
74416;SHT31;62850;42.428;25.618;2023-04-03T00:07:07;12.65;52.82
74416;SHT31;62850;42.428;25.618;2023-04-03T00:09:32;12.72;51.97
74416;SHT31;62850;42.428;25.618;2023-04-03T00:11:58;12.79;53.04
74416;SHT31;62850;42.428;25.618;2023-04-03T00:14:23;12.79;52.95
74416;SHT31;62850;42.428;25.618;2023-04-03T00:16:49;12.82;52.92
74416;SHT31;62850;42.428;25.618;2023-04-03T00:19:14;12.84;52.97
74416;SHT31;62850;42.428;25.618;2023-04-03T00:21:40;12.66;52.89
74416;SHT31;62850;42.428;25.618;2023-04-03T00:24:06;12.66;52.72
74416;SHT31;62850;42.428;25.618;2023-04-03T00:26:32;12.62;53.31
74416;SHT31;62850;42.428;25.618;2023-04-03T00:28:57;12.57;53.84
74416;SHT31;62850;42.428;25.618;2023-04-03T00:31:23;12.53;53.81
74416;SHT31;62850;42.428;25.618;2023-04-03T00:33:48;12.41;54.70
74416;SHT31;62850;42.428;25.618;2023-04-03T00:36:15;12.20;54.87
74416;SHT31;62850;42.428;25.618;2023-04-03T00:38:41;12.24;54.46
74416;SHT31;62850;42.428;25.618;2023-04-03T00:41:07;12.10;54.89
74416;SHT31;62850;42.428;25.618;2023-04-03T00:43:33;11.87;55.72
74416;SHT31;62850;42.428;25.618;2023-04-03T00:45:59;11.76;56.55
74416;SHT31;62850;42.428;25.618;2023-04-03T00:48:29;11.81;55.98
74416;SHT31;62850;42.428;25.618;2023-04-03T00:50:55;11.88;56.07
74416;SHT31;62850;42.428;25.618;2023-04-03T00:53:26;11.88;56.14
74416;SHT31;62850;42.428;25.618;2023-04-03T00:55:53;11.87;56.00
74416;SHT31;62850;42.428;25.618;2023-04-03T00:58:24;11.91;55.40
74416;SHT31;62850;42.428;25.618;2023-04-03T01:00:55;11.97;55.37
74416;SHT31;62850;42.428;25.618;2023-04-03T01:03:23;11.81;55.29
74416;SHT31;62850;42.428;25.618;2023-04-03T01:05:49;11.71;56.33
74416;SHT31;62850;42.428;25.618;2023-04-03T01:08:15;11.70;55.76
74416;SHT31;62850;42.428;25.618;2023-04-03T01:10:41;11.67;55.98
74416;SHT31;62850;42.428;25.618;2023-04-03T01:13:22;11.52;57.11
74416;SHT31;62850;42.428;25.618;2023-04-03T01:15:48;11.47;56.45
74416;SHT31;62850;42.428;25.618;2023-04-03T01:18:13;11.25;56.62
74416;SHT31;62850;42.428;25.618;2023-04-03T01:23:51;11.20;58.32
74416;SHT31;62850;42.428;25.618;2023-04-03T01:26:18;11.23;57.08
74416;SHT31;62850;42.428;25.618;2023-04-03T01:28:45;11.32;56.74
74416;SHT31;62850;42.428;25.618;2023-04-03T01:34:00;11.06;57.74
74416;SHT31;62850;42.428;25.618;2023-04-03T01:36:28;11.09;57.43
74416;SHT31;62850;42.428;25.618;2023-04-03T01:38:54;11.20;57.11
74416;SHT31;62850;42.428;25.618;2023-04-03T01:41:20;11.14;57.94
74416;SHT31;62850;42.428;25.618;2023-04-03T01:43:46;11.06;58.02
74416;SHT31;62850;42.428;25.618;2023-04-03T01:46:12;11.04;57.59
74416;SHT31;62850;42.428;25.618;2023-04-03T01:48:38;11.05;57.90
74416;SHT31;62850;42.428;25.618;2023-04-03T01:51:03;10.99;58.11
74416;SHT31;62850;42.428;25.618;2023-04-03T01:53:29;10.98;58.40
74416;SHT31;62850;42.428;25.618;2023-04-03T01:55:54;10.88;58.19
74416;SHT31;62850;42.428;25.618;2023-04-03T01:58:20;10.67;58.97
74416;SHT31;62850;42.428;25.618;2023-04-03T02:00:45;10.61;58.95
74416;SHT31;62850;42.428;25.618;2023-04-03T02:03:11;10.58;59.23
74416;SHT31;62850;42.428;25.618;2023-04-03T02:05:37;10.54;59.36
74416;SHT31;62850;42.428;25.618;2023-04-03T02:08:03;10.36;59.92
74416;SHT31;62850;42.428;25.618;2023-04-03T02:10:29;10.34;59.95
74416;SHT31;62850;42.428;25.618;2023-04-03T02:12:54;10.37;59.81
74416;SHT31;62850;42.428;25.618;2023-04-03T02:15:20;10.41;59.75
74416;SHT31;62850;42.428;25.618;2023-04-03T02:17:45;10.37;59.71
74416;SHT31;62850;42.428;25.618;2023-04-03T02:20:11;10.40;59.88
74416;SHT31;62850;42.428;25.618;2023-04-03T02:22:37;10.27;60.30
74416;SHT31;62850;42.428;25.618;2023-04-03T02:25:02;10.23;60.43
74416;SHT31;62850;42.428;25.618;2023-04-03T02:27:28;10.13;61.09
74416;SHT31;62850;42.428;25.618;2023-04-03T02:29:53;10.23;60.68
74416;SHT31;62850;42.428;25.618;2023-04-03T02:32:19;10.30;60.24
74416;SHT31;62850;42.428;25.618;2023-04-03T02:34:44;10.21;60.53
74416;SHT31;62850;42.428;25.618;2023-04-03T02:37:10;10.17;61.34
74416;SHT31;62850;42.428;25.618;2023-04-03T02:39:35;10.20;60.59
74416;SHT31;62850;42.428;25.618;2023-04-03T02:42:00;10.20;60.57
74416;SHT31;62850;42.428;25.618;2023-04-03T02:44:26;10.19;60.93
74416;SHT31;62850;42.428;25.618;2023-04-03T02:46:51;10.16;61.49
74416;SHT31;62850;42.428;25.618;2023-04-03T02:49:17;10.23;60.70
74416;SHT31;62850;42.428;25.618;2023-04-03T02:51:43;10.20;60.90
74416;SHT31;62850;42.428;25.618;2023-04-03T02:54:08;10.12;60.93
74416;SHT31;62850;42.428;25.618;2023-04-03T02:56:35;10.17;60.78
74416;SHT31;62850;42.428;25.618;2023-04-03T02:59:01;10.21;61.06
74416;SHT31;62850;42.428;25.618;2023-04-03T03:01:26;10.32;60.45
74416;SHT31;62850;42.428;25.618;2023-04-03T03:03:58;10.32;60.51
74416;SHT31;62850;42.428;25.618;2023-04-03T03:06:23;10.27;61.26
74416;SHT31;62850;42.428;25.618;2023-04-03T03:08:49;10.20;61.28
74416;SHT31;62850;42.428;25.618;2023-04-03T03:11:15;10.26;60.98
74416;SHT31;62850;42.428;25.618;2023-04-03T03:13:40;10.27;60.98
74416;SHT31;62850;42.428;25.618;2023-04-03T03:16:06;10.17;61.86
74416;SHT31;62850;42.428;25.618;2023-04-03T03:18:32;10.21;61.95
74416;SHT31;62850;42.428;25.618;2023-04-03T03:20:59;10.16;61.11
74416;SHT31;62850;42.428;25.618;2023-04-03T03:23:27;10.12;61.49
74416;SHT31;62850;42.428;25.618;2023-04-03T03:26:01;10.13;62.28
74416;SHT31;62850;42.428;25.618;2023-04-03T03:28:27;10.14;61.81
74416;SHT31;62850;42.428;25.618;2023-04-03T03:30:52;10.19;61.15
74416;SHT31;62850;42.428;25.618;2023-04-03T03:33:18;10.08;61.85
74416;SHT31;62850;42.428;25.618;2023-04-03T03:35:44;10.10;61.99
74416;SHT31;62850;42.428;25.618;2023-04-03T03:38:10;10.17;61.28
74416;SHT31;62850;42.428;25.618;2023-04-03T03:40:35;10.12;61.33
74416;SHT31;62850;42.428;25.618;2023-04-03T03:43:01;10.00;61.83
74416;SHT31;62850;42.428;25.618;2023-04-03T03:45:26;10.00;61.48
74416;SHT31;62850;42.428;25.618;2023-04-03T03:47:52;10.03;61.69
74416;SHT31;62850;42.428;25.618;2023-04-03T03:50:18;9.95;62.10
74416;SHT31;62850;42.428;25.618;2023-04-03T03:52:43;9.96;61.89
74416;SHT31;62850;42.428;25.618;2023-04-03T03:55:09;9.95;61.56
74416;SHT31;62850;42.428;25.618;2023-04-03T03:57:35;9.99;61.34
74416;SHT31;62850;42.428;25.618;2023-04-03T04:00:01;9.89;61.51
74416;SHT31;62850;42.428;25.618;2023-04-03T04:02:26;9.86;61.46
74416;SHT31;62850;42.428;25.618;2023-04-03T04:04:51;9.92;61.50
74416;SHT31;62850;42.428;25.618;2023-04-03T04:07:17;9.89;61.52
74416;SHT31;62850;42.428;25.618;2023-04-03T04:09:43;9.86;61.70
74416;SHT31;62850;42.428;25.618;2023-04-03T04:12:08;9.95;61.46
74416;SHT31;62850;42.428;25.618;2023-04-03T04:14:34;9.85;61.74
74416;SHT31;62850;42.428;25.618;2023-04-03T04:16:59;9.85;62.12
74416;SHT31;62850;42.428;25.618;2023-04-03T04:19:25;9.96;62.16
74416;SHT31;62850;42.428;25.618;2023-04-03T04:21:50;10.08;61.59
74416;SHT31;62850;42.428;25.618;2023-04-03T04:24:15;10.12;61.24
74416;SHT31;62850;42.428;25.618;2023-04-03T04:26:41;10.16;62.24
74416;SHT31;62850;42.428;25.618;2023-04-03T04:29:09;10.17;61.53
74416;SHT31;62850;42.428;25.618;2023-04-03T04:31:34;10.29;60.92
74416;SHT31;62850;42.428;25.618;2023-04-03T04:34:00;10.37;60.64
74416;SHT31;62850;42.428;25.618;2023-04-03T04:36:25;10.37;61.10
74416;SHT31;62850;42.428;25.618;2023-04-03T04:38:51;10.44;60.73
74416;SHT31;62850;42.428;25.618;2023-04-03T04:41:20;10.50;60.46
74416;SHT31;62850;42.428;25.618;2023-04-03T04:43:50;10.51;60.93
74416;SHT31;62850;42.428;25.618;2023-04-03T04:46:16;10.53;60.85
74416;SHT31;62850;42.428;25.618;2023-04-03T04:48:41;10.57;60.67
74416;SHT31;62850;42.428;25.618;2023-04-03T04:51:07;10.69;60.33
74416;SHT31;62850;42.428;25.618;2023-04-03T04:53:33;10.77;60.23
74416;SHT31;62850;42.428;25.618;2023-04-03T04:55:59;10.85;60.38
74416;SHT31;62850;42.428;25.618;2023-04-03T04:58:24;10.91;60.37
74416;SHT31;62850;42.428;25.618;2023-04-03T05:00:58;11.04;59.72
74416;SHT31;62850;42.428;25.618;2023-04-03T05:03:24;11.14;59.71
74416;SHT31;62850;42.428;25.618;2023-04-03T05:05:49;11.18;59.84
74416;SHT31;62850;42.428;25.618;2023-04-03T05:08:15;11.20;59.86
74416;SHT31;62850;42.428;25.618;2023-04-03T05:10:40;11.36;59.61
74416;SHT31;62850;42.428;25.618;2023-04-03T05:13:07;11.52;59.35
74416;SHT31;62850;42.428;25.618;2023-04-03T05:15:32;11.70;58.89
74416;SHT31;62850;42.428;25.618;2023-04-03T05:17:58;11.87;58.46
74416;SHT31;62850;42.428;25.618;2023-04-03T05:20:23;11.94;58.54
74416;SHT31;62850;42.428;25.618;2023-04-03T05:22:49;12.04;58.46
74416;SHT31;62850;42.428;25.618;2023-04-03T05:25:14;12.21;58.19
74416;SHT31;62850;42.428;25.618;2023-04-03T05:27:40;12.39;57.95
74416;SHT31;62850;42.428;25.618;2023-04-03T05:30:06;12.50;57.41
74416;SHT31;62850;42.428;25.618;2023-04-03T05:32:32;12.70;55.66
74416;SHT31;62850;42.428;25.618;2023-04-03T05:34:58;12.92;55.17
74416;SHT31;62850;42.428;25.618;2023-04-03T05:37:23;13.07;54.55
74416;SHT31;62850;42.428;25.618;2023-04-03T05:39:48;13.23;54.31
74416;SHT31;62850;42.428;25.618;2023-04-03T05:42:14;13.37;52.95
74416;SHT31;62850;42.428;25.618;2023-04-03T05:44:41;13.47;52.38
74416;SHT31;62850;42.428;25.618;2023-04-03T05:47:06;13.62;51.93
74416;SHT31;62850;42.428;25.618;2023-04-03T05:49:32;13.71;52.37
74416;SHT31;62850;42.428;25.618;2023-04-03T05:51:57;13.83;51.66
74416;SHT31;62850;42.428;25.618;2023-04-03T05:54:25;13.93;51.46
74416;SHT31;62850;42.428;25.618;2023-04-03T05:56:51;14.02;51.44
74416;SHT31;62850;42.428;25.618;2023-04-03T05:59:18;14.14;51.14
74416;SHT31;62850;42.428;25.618;2023-04-03T06:01:43;14.24;50.15
74416;SHT31;62850;42.428;25.618;2023-04-03T06:04:10;14.36;49.56
74416;SHT31;62850;42.428;25.618;2023-04-03T06:06:51;14.47;49.68
74416;SHT31;62850;42.428;25.618;2023-04-03T06:09:19;14.50;48.14
74416;SHT31;62850;42.428;25.618;2023-04-03T06:11:44;14.56;47.44
74416;SHT31;62850;42.428;25.618;2023-04-03T06:14:11;14.61;48.02
74416;SHT31;62850;42.428;25.618;2023-04-03T06:16:37;14.75;46.99
74416;SHT31;62850;42.428;25.618;2023-04-03T06:19:03;14.84;47.29
74416;SHT31;62850;42.428;25.618;2023-04-03T06:21:29;14.92;46.73
74416;SHT31;62850;42.428;25.618;2023-04-03T06:23:55;14.92;46.19
74416;SHT31;62850;42.428;25.618;2023-04-03T06:26:20;14.96;45.96
74416;SHT31;62850;42.428;25.618;2023-04-03T06:28:46;15.06;46.40
74416;SHT31;62850;42.428;25.618;2023-04-03T06:31:11;15.18;47.41
74416;SHT31;62850;42.428;25.618;2023-04-03T06:33:37;15.30;47.98
74416;SHT31;62850;42.428;25.618;2023-04-03T06:36:06;15.40;48.26
74416;SHT31;62850;42.428;25.618;2023-04-03T06:38:33;15.40;49.43
74416;SHT31;62850;42.428;25.618;2023-04-03T06:40:59;15.19;50.28
74416;SHT31;62850;42.428;25.618;2023-04-03T06:43:25;15.15;50.56
74416;SHT31;62850;42.428;25.618;2023-04-03T06:45:51;15.19;50.36
74416;SHT31;62850;42.428;25.618;2023-04-03T06:48:17;15.29;50.36
74416;SHT31;62850;42.428;25.618;2023-04-03T06:50:42;15.29;50.49
74416;SHT31;62850;42.428;25.618;2023-04-03T06:53:09;15.35;50.60
74416;SHT31;62850;42.428;25.618;2023-04-03T06:55:35;15.38;50.54
74416;SHT31;62850;42.428;25.618;2023-04-03T06:58:01;15.40;50.76
74416;SHT31;62850;42.428;25.618;2023-04-03T07:00:26;15.49;50.19
74416;SHT31;62850;42.428;25.618;2023-04-03T07:02:52;15.53;50.38
74416;SHT31;62850;42.428;25.618;2023-04-03T07:05:18;15.51;50.57
74416;SHT31;62850;42.428;25.618;2023-04-03T07:07:44;15.53;50.53
74416;SHT31;62850;42.428;25.618;2023-04-03T07:10:10;15.57;50.22
74416;SHT31;62850;42.428;25.618;2023-04-03T07:12:36;15.54;49.85
74416;SHT31;62850;42.428;25.618;2023-04-03T07:15:04;15.54;49.64
74416;SHT31;62850;42.428;25.618;2023-04-03T07:17:30;15.54;49.27
74416;SHT31;62850;42.428;25.618;2023-04-03T07:19:55;15.53;49.32
74416;SHT31;62850;42.428;25.618;2023-04-03T07:22:21;15.61;49.26
74416;SHT31;62850;42.428;25.618;2023-04-03T07:24:46;15.70;48.89
74416;SHT31;62850;42.428;25.618;2023-04-03T07:27:12;15.66;48.83
74416;SHT31;62850;42.428;25.618;2023-04-03T07:29:38;15.69;48.71
74416;SHT31;62850;42.428;25.618;2023-04-03T07:32:04;15.49;49.32
74416;SHT31;62850;42.428;25.618;2023-04-03T07:34:31;15.50;48.90
74416;SHT31;62850;42.428;25.618;2023-04-03T07:36:56;15.57;48.74
74416;SHT31;62850;42.428;25.618;2023-04-03T07:39:23;15.76;48.20
74416;SHT31;62850;42.428;25.618;2023-04-03T07:41:48;15.76;47.26
74416;SHT31;62850;42.428;25.618;2023-04-03T07:44:13;15.86;47.66
74416;SHT31;62850;42.428;25.618;2023-04-03T07:46:39;16.05;46.88
74416;SHT31;62850;42.428;25.618;2023-04-03T07:49:06;16.18;46.58
74416;SHT31;62850;42.428;25.618;2023-04-03T07:51:31;16.17;46.06
74416;SHT31;62850;42.428;25.618;2023-04-03T07:53:57;16.11;45.44
74416;SHT31;62850;42.428;25.618;2023-04-03T07:56:23;16.10;45.44
74416;SHT31;62850;42.428;25.618;2023-04-03T07:58:48;16.22;45.25
74416;SHT31;62850;42.428;25.618;2023-04-03T08:01:14;16.31;45.05
74416;SHT31;62850;42.428;25.618;2023-04-03T08:03:39;16.35;45.35
74416;SHT31;62850;42.428;25.618;2023-04-03T08:06:07;16.41;44.72
74416;SHT31;62850;42.428;25.618;2023-04-03T08:08:33;16.36;44.57
74416;SHT31;62850;42.428;25.618;2023-04-03T08:11:00;16.28;45.32
74416;SHT31;62850;42.428;25.618;2023-04-03T08:13:26;16.38;45.21
74416;SHT31;62850;42.428;25.618;2023-04-03T08:15:51;16.52;44.68
74416;SHT31;62850;42.428;25.618;2023-04-03T08:18:18;16.62;44.85
74416;SHT31;62850;42.428;25.618;2023-04-03T08:20:46;16.59;45.37
74416;SHT31;62850;42.428;25.618;2023-04-03T08:23:12;16.60;45.57
74416;SHT31;62850;42.428;25.618;2023-04-03T08:25:41;16.63;45.22
74416;SHT31;62850;42.428;25.618;2023-04-03T08:28:07;16.70;44.85
74416;SHT31;62850;42.428;25.618;2023-04-03T08:30:34;16.68;45.20
74416;SHT31;62850;42.428;25.618;2023-04-03T08:33:01;16.76;45.14
74416;SHT31;62850;42.428;25.618;2023-04-03T08:35:27;16.91;44.23
74416;SHT31;62850;42.428;25.618;2023-04-03T08:37:52;17.02;44.08
74416;SHT31;62850;42.428;25.618;2023-04-03T08:40:18;17.18;44.01
74416;SHT31;62850;42.428;25.618;2023-04-03T08:51:03;17.10;43.69
74416;SHT31;62850;42.428;25.618;2023-04-03T08:53:33;17.20;43.04
74416;SHT31;62850;42.428;25.618;2023-04-03T08:56:05;17.30;42.89
74416;SHT31;62850;42.428;25.618;2023-04-03T08:58:42;17.26;43.10
74416;SHT31;62850;42.428;25.618;2023-04-03T09:01:21;17.34;43.08
74416;SHT31;62850;42.428;25.618;2023-04-03T09:03:48;17.38;42.88
74416;SHT31;62850;42.428;25.618;2023-04-03T09:06:25;17.45;42.62
74416;SHT31;62850;42.428;25.618;2023-04-03T09:09:30;17.41;42.18
74416;SHT31;62850;42.428;25.618;2023-04-03T09:12:34;17.30;42.88
74416;SHT31;62850;42.428;25.618;2023-04-03T09:15:19;17.32;42.68
74416;SHT31;62850;42.428;25.618;2023-04-03T09:25:50;17.58;41.52
74416;SHT31;62850;42.428;25.618;2023-04-03T09:28:16;17.57;41.26
74416;SHT31;62850;42.428;25.618;2023-04-03T09:30:42;17.65;41.44
74416;SHT31;62850;42.428;25.618;2023-04-03T09:33:08;17.65;41.86
74416;SHT31;62850;42.428;25.618;2023-04-03T09:35:36;17.74;41.44
74416;SHT31;62850;42.428;25.618;2023-04-03T09:40:40;17.76;41.45
74416;SHT31;62850;42.428;25.618;2023-04-03T09:43:22;17.67;42.17
74416;SHT31;62850;42.428;25.618;2023-04-03T09:45:49;17.57;42.42
74416;SHT31;62850;42.428;25.618;2023-04-03T09:48:19;17.55;42.82
74416;SHT31;62850;42.428;25.618;2023-04-03T09:53:40;17.52;42.70
74416;SHT31;62850;42.428;25.618;2023-04-03T10:01:31;17.41;41.39
74416;SHT31;62850;42.428;25.618;2023-04-03T10:06:47;17.42;42.23
74416;SHT31;62850;42.428;25.618;2023-04-03T10:12:13;17.16;42.83
74416;SHT31;62850;42.428;25.618;2023-04-03T10:20:06;16.99;42.93
74416;SHT31;62850;42.428;25.618;2023-04-03T10:44:41;16.76;44.99
74416;SHT31;62850;42.428;25.618;2023-04-03T10:47:24;16.90;45.04
74416;SHT31;62850;42.428;25.618;2023-04-03T10:54:00;16.90;45.96
74416;SHT31;62850;42.428;25.618;2023-04-03T10:56:08;16.93;46.42
74416;SHT31;62850;42.428;25.618;2023-04-03T10:58:40;17.00;46.79
74416;SHT31;62850;42.428;25.618;2023-04-03T11:01:11;17.04;47.29
74416;SHT31;62850;42.428;25.618;2023-04-03T11:03:41;17.03;47.75
74416;SHT31;62850;42.428;25.618;2023-04-03T11:06:11;16.94;48.71
74416;SHT31;62850;42.428;25.618;2023-04-03T11:11:20;16.91;49.67
74416;SHT31;62850;42.428;25.618;2023-04-03T11:13:55;16.89;50.57
74416;SHT31;62850;42.428;25.618;2023-04-03T11:16:28;16.81;50.91
74416;SHT31;62850;42.428;25.618;2023-04-03T11:19:12;16.81;51.04
74416;SHT31;62850;42.428;25.618;2023-04-03T11:24:32;16.70;51.65
74416;SHT31;62850;42.428;25.618;2023-04-03T11:27:00;16.66;51.60
74416;SHT31;62850;42.428;25.618;2023-04-03T11:29:38;16.66;51.81
74416;SHT31;62850;42.428;25.618;2023-04-03T11:37:00;16.72;53.25
74416;SHT31;62850;42.428;25.618;2023-04-03T11:39:34;16.83;53.27
74416;SHT31;62850;42.428;25.618;2023-04-03T11:42:27;16.89;53.89
74416;SHT31;62850;42.428;25.618;2023-04-03T11:47:48;16.77;54.66
74416;SHT31;62850;42.428;25.618;2023-04-03T11:50:45;16.75;54.80
74416;SHT31;62850;42.428;25.618;2023-04-03T11:58:24;16.80;54.43
74416;SHT31;62850;42.428;25.618;2023-04-03T12:29:47;16.05;60.43
74416;SHT31;62850;42.428;25.618;2023-04-03T12:32:37;15.97;61.99
74416;SHT31;62850;42.428;25.618;2023-04-03T12:35:48;15.93;63.22
74416;SHT31;62850;42.428;25.618;2023-04-03T12:47:35;15.44;68.82
74416;SHT31;62850;42.428;25.618;2023-04-03T12:50:16;15.36;69.37
74416;SHT31;62850;42.428;25.618;2023-04-03T12:52:45;15.18;69.96
74416;SHT31;62850;42.428;25.618;2023-04-03T12:55:19;15.19;69.98
74416;SHT31;62850;42.428;25.618;2023-04-03T12:57:45;15.19;70.45
74416;SHT31;62850;42.428;25.618;2023-04-03T13:00:32;15.12;70.50
74416;SHT31;62850;42.428;25.618;2023-04-03T13:03:00;15.02;71.22
74416;SHT31;62850;42.428;25.618;2023-04-03T13:05:27;14.98;71.19
74416;SHT31;62850;42.428;25.618;2023-04-03T13:08:05;14.91;71.77
74416;SHT31;62850;42.428;25.618;2023-04-03T13:10:52;14.89;72.57
74416;SHT31;62850;42.428;25.618;2023-04-03T13:13:19;14.91;72.43
74416;SHT31;62850;42.428;25.618;2023-04-03T13:15:47;14.75;72.45
74416;SHT31;62850;42.428;25.618;2023-04-03T13:18:32;14.80;72.01
74416;SHT31;62850;42.428;25.618;2023-04-03T13:23:29;14.70;72.66
74416;SHT31;62850;42.428;25.618;2023-04-03T13:25:57;14.71;72.95
74416;SHT31;62850;42.428;25.618;2023-04-03T13:28:26;14.64;73.45
74416;SHT31;62850;42.428;25.618;2023-04-03T13:33:26;14.64;73.40
74416;SHT31;62850;42.428;25.618;2023-04-03T13:36:00;14.65;73.70
74416;SHT31;62850;42.428;25.618;2023-04-03T13:38:29;14.63;73.67
74416;SHT31;62850;42.428;25.618;2023-04-03T13:41:02;14.61;73.88
74416;SHT31;62850;42.428;25.618;2023-04-03T13:43:34;14.50;73.47
74416;SHT31;62850;42.428;25.618;2023-04-03T13:46:01;14.44;73.50
74416;SHT31;62850;42.428;25.618;2023-04-03T13:48:51;14.44;73.58
74416;SHT31;62850;42.428;25.618;2023-04-03T13:51:26;14.37;74.13
74416;SHT31;62850;42.428;25.618;2023-04-03T13:53:55;14.29;74.46
74416;SHT31;62850;42.428;25.618;2023-04-03T13:56:29;14.33;74.36
74416;SHT31;62850;42.428;25.618;2023-04-03T13:59:42;14.26;74.57
74416;SHT31;62850;42.428;25.618;2023-04-03T14:01:55;14.17;74.35
74416;SHT31;62850;42.428;25.618;2023-04-03T14:04:53;13.99;73.81
74416;SHT31;62850;42.428;25.618;2023-04-03T14:07:23;13.90;74.67
74416;SHT31;62850;42.428;25.618;2023-04-03T14:09:50;13.87;74.72
74416;SHT31;62850;42.428;25.618;2023-04-03T14:12:34;13.92;74.75
74416;SHT31;62850;42.428;25.618;2023-04-03T14:15:04;13.99;74.90
74416;SHT31;62850;42.428;25.618;2023-04-03T14:17:32;14.02;74.90
74416;SHT31;62850;42.428;25.618;2023-04-03T14:19:58;13.99;74.86
74416;SHT31;62850;42.428;25.618;2023-04-03T14:22:31;13.76;74.90
74416;SHT31;62850;42.428;25.618;2023-04-03T14:24:57;13.69;75.39
74416;SHT31;62850;42.428;25.618;2023-04-03T14:27:43;13.71;75.33
74416;SHT31;62850;42.428;25.618;2023-04-03T14:30:25;13.73;75.90
74416;SHT31;62850;42.428;25.618;2023-04-03T14:32:51;13.73;75.49
74416;SHT31;62850;42.428;25.618;2023-04-03T14:35:17;13.69;75.82
74416;SHT31;62850;42.428;25.618;2023-04-03T14:37:43;13.75;76.40
74416;SHT31;62850;42.428;25.618;2023-04-03T14:40:13;13.59;76.55
74416;SHT31;62850;42.428;25.618;2023-04-03T14:42:39;13.52;76.02
74416;SHT31;62850;42.428;25.618;2023-04-03T14:45:08;13.55;76.22
74416;SHT31;62850;42.428;25.618;2023-04-03T14:47:45;13.54;75.82
74416;SHT31;62850;42.428;25.618;2023-04-03T14:50:16;13.52;75.87
74416;SHT31;62850;42.428;25.618;2023-04-03T14:52:42;13.38;76.48
74416;SHT31;62850;42.428;25.618;2023-04-03T14:55:08;13.38;76.42
74416;SHT31;62850;42.428;25.618;2023-04-03T14:57:34;13.37;76.28
74416;SHT31;62850;42.428;25.618;2023-04-03T15:00:00;13.35;76.20
74416;SHT31;62850;42.428;25.618;2023-04-03T15:02:33;13.35;76.28
74416;SHT31;62850;42.428;25.618;2023-04-03T15:05:01;13.25;76.67
74416;SHT31;62850;42.428;25.618;2023-04-03T15:07:30;13.21;77.09
74416;SHT31;62850;42.428;25.618;2023-04-03T15:09:59;13.18;77.13
74416;SHT31;62850;42.428;25.618;2023-04-03T15:12:26;13.28;76.93
74416;SHT31;62850;42.428;25.618;2023-04-03T15:14:52;13.23;76.01
74416;SHT31;62850;42.428;25.618;2023-04-03T15:17:19;13.23;75.52
74416;SHT31;62850;42.428;25.618;2023-04-03T15:19:46;13.08;75.13
74416;SHT31;62850;42.428;25.618;2023-04-03T15:22:17;13.15;75.27
74416;SHT31;62850;42.428;25.618;2023-04-03T15:24:43;13.20;75.33
74416;SHT31;62850;42.428;25.618;2023-04-03T15:27:09;13.27;75.11
74416;SHT31;62850;42.428;25.618;2023-04-03T15:29:36;13.18;73.86
74416;SHT31;62850;42.428;25.618;2023-04-03T15:32:03;13.14;73.47
74416;SHT31;62850;42.428;25.618;2023-04-03T15:34:28;13.14;73.97
74416;SHT31;62850;42.428;25.618;2023-04-03T15:36:54;13.10;74.00
74416;SHT31;62850;42.428;25.618;2023-04-03T15:39:20;13.11;73.08
74416;SHT31;62850;42.428;25.618;2023-04-03T15:41:45;13.08;73.48
74416;SHT31;62850;42.428;25.618;2023-04-03T15:44:11;13.15;73.18
74416;SHT31;62850;42.428;25.618;2023-04-03T15:46:38;13.08;72.10
74416;SHT31;62850;42.428;25.618;2023-04-03T15:49:04;13.02;72.03
74416;SHT31;62850;42.428;25.618;2023-04-03T15:51:30;12.93;72.36
74416;SHT31;62850;42.428;25.618;2023-04-03T15:53:56;12.92;71.83
74416;SHT31;62850;42.428;25.618;2023-04-03T15:56:22;12.80;72.26
74416;SHT31;62850;42.428;25.618;2023-04-03T15:58:47;12.79;72.43
74416;SHT31;62850;42.428;25.618;2023-04-03T16:01:13;12.80;72.67
74416;SHT31;62850;42.428;25.618;2023-04-03T16:03:40;12.82;72.36
74416;SHT31;62850;42.428;25.618;2023-04-03T16:06:11;12.70;71.46
74416;SHT31;62850;42.428;25.618;2023-04-03T16:08:37;12.77;72.09
74416;SHT31;62850;42.428;25.618;2023-04-03T16:11:03;12.75;72.72
74416;SHT31;62850;42.428;25.618;2023-04-03T16:13:28;12.69;72.23
74416;SHT31;62850;42.428;25.618;2023-04-03T16:15:54;12.59;71.74
74416;SHT31;62850;42.428;25.618;2023-04-03T16:18:20;12.48;72.58
74416;SHT31;62850;42.428;25.618;2023-04-03T16:20:46;12.45;73.67
74416;SHT31;62850;42.428;25.618;2023-04-03T16:23:12;12.41;73.73
74416;SHT31;62850;42.428;25.618;2023-04-03T16:25:37;12.34;73.12
74416;SHT31;62850;42.428;25.618;2023-04-03T16:28:03;12.29;73.54
74416;SHT31;62850;42.428;25.618;2023-04-03T16:30:28;12.20;74.57
74416;SHT31;62850;42.428;25.618;2023-04-03T16:32:54;12.15;75.01
74416;SHT31;62850;42.428;25.618;2023-04-03T16:35:21;12.14;75.05
74416;SHT31;62850;42.428;25.618;2023-04-03T16:37:46;12.15;75.60
74416;SHT31;62850;42.428;25.618;2023-04-03T16:40:12;12.08;75.15
74416;SHT31;62850;42.428;25.618;2023-04-03T16:42:37;12.08;75.22
74416;SHT31;62850;42.428;25.618;2023-04-03T16:45:04;12.13;75.00
74416;SHT31;62850;42.428;25.618;2023-04-03T16:47:31;12.10;74.57
74416;SHT31;62850;42.428;25.618;2023-04-03T16:49:56;12.13;74.27
74416;SHT31;62850;42.428;25.618;2023-04-03T16:52:22;12.11;73.91
74416;SHT31;62850;42.428;25.618;2023-04-03T16:54:47;12.11;73.16
74416;SHT31;62850;42.428;25.618;2023-04-03T16:57:13;12.24;72.57
74416;SHT31;62850;42.428;25.618;2023-04-03T16:59:38;12.34;72.76
74416;SHT31;62850;42.428;25.618;2023-04-03T17:02:04;12.38;73.47
74416;SHT31;62850;42.428;25.618;2023-04-03T17:04:30;12.35;74.27
74416;SHT31;62850;42.428;25.618;2023-04-03T17:06:55;12.29;75.20
74416;SHT31;62850;42.428;25.618;2023-04-03T17:09:21;12.26;75.73
74416;SHT31;62850;42.428;25.618;2023-04-03T17:11:48;12.18;77.20
74416;SHT31;62850;42.428;25.618;2023-04-03T17:14:13;12.08;76.83
74416;SHT31;62850;42.428;25.618;2023-04-03T17:16:39;12.08;77.66
74416;SHT31;62850;42.428;25.618;2023-04-03T17:19:05;11.90;78.14
74416;SHT31;62850;42.428;25.618;2023-04-03T17:21:32;11.93;78.59
74416;SHT31;62850;42.428;25.618;2023-04-03T17:24:03;11.88;78.96
74416;SHT31;62850;42.428;25.618;2023-04-03T17:26:34;11.76;78.82
74416;SHT31;62850;42.428;25.618;2023-04-03T17:29:02;11.64;79.64
74416;SHT31;62850;42.428;25.618;2023-04-03T17:31:27;11.53;79.66
74416;SHT31;62850;42.428;25.618;2023-04-03T17:33:53;11.59;79.85
74416;SHT31;62850;42.428;25.618;2023-04-03T17:36:18;11.59;80.16